createdAt,value
2019-03-02T00:03:38.054Z,8.77
2019-03-02T00:06:05.181Z,9.90
2019-03-02T00:08:32.477Z,8.77
2019-03-02T00:10:59.743Z,12.13
2019-03-02T00:13:26.891Z,11.57
2019-03-02T00:15:54.305Z,10.70
2019-03-02T00:18:21.485Z,11.90
2019-03-02T00:20:50.325Z,10.03
2019-03-02T00:23:18.888Z,9.53
2019-03-02T00:25:46.570Z,7.77
2019-03-02T00:28:13.575Z,8.07
2019-03-02T00:30:40.410Z,9.13
2019-03-02T00:33:07.360Z,11.77
2019-03-02T00:35:34.092Z,9.97
2019-03-02T00:38:00.961Z,9.03
2019-03-02T00:40:30.373Z,11.50
2019-03-02T00:42:56.482Z,9.10
2019-03-02T00:45:23.201Z,12.57
2019-03-02T00:47:50.000Z,9.83
2019-03-02T00:50:36.647Z,12.50
2019-03-02T00:53:05.394Z,11.57
2019-03-02T00:55:45.391Z,9.83
2019-03-02T00:58:12.618Z,13.03
2019-03-02T01:00:39.468Z,11.37
2019-03-02T01:03:06.592Z,13.23
2019-03-02T01:05:36.104Z,12.73
2019-03-02T01:08:02.023Z,15.40
2019-03-02T01:10:28.891Z,7.93
2019-03-02T01:12:55.768Z,13.93
2019-03-02T01:15:22.710Z,13.10
2019-03-02T01:17:49.543Z,12.53
2019-03-02T01:20:16.495Z,10.07
2019-03-02T01:22:43.511Z,12.10
2019-03-02T01:25:13.490Z,15.83
2019-03-02T01:27:40.497Z,9.60
2019-03-02T01:30:29.965Z,13.40
2019-03-02T01:32:57.538Z,12.00
2019-03-02T01:35:24.191Z,10.07
2019-03-02T01:37:50.837Z,11.07
2019-03-02T01:40:18.284Z,13.37
2019-03-02T01:42:44.948Z,14.33
2019-03-02T01:45:13.773Z,11.17
2019-03-02T01:47:40.817Z,9.87
2019-03-02T01:50:49.360Z,13.43
2019-03-02T01:53:16.562Z,13.87
2019-03-02T01:55:43.185Z,12.97
2019-03-02T01:58:32.262Z,12.70
2019-03-02T02:00:59.014Z,12.00
2019-03-02T02:03:25.740Z,12.50
2019-03-02T02:05:52.705Z,10.80
2019-03-02T02:08:19.534Z,12.60
2019-03-02T02:10:46.267Z,12.70
2019-03-02T02:13:13.064Z,10.97
2019-03-02T02:15:39.798Z,12.67
2019-03-02T02:18:06.530Z,15.90
2019-03-02T02:20:33.429Z,15.23
2019-03-02T02:23:00.175Z,12.73
2019-03-02T02:25:27.184Z,14.70
2019-03-02T02:27:54.860Z,13.27
2019-03-02T02:31:06.390Z,11.77
2019-03-02T02:33:33.240Z,16.03
2019-03-02T02:36:00.715Z,13.77
2019-03-02T02:38:28.041Z,15.07
2019-03-02T02:40:54.834Z,14.63
2019-03-02T02:43:22.366Z,14.87
2019-03-02T02:45:53.634Z,13.30
2019-03-02T02:48:19.305Z,12.00
2019-03-02T02:50:46.145Z,12.40
2019-03-02T02:53:12.875Z,14.93
2019-03-02T02:55:40.982Z,13.33
2019-03-02T02:58:12.717Z,13.80
2019-03-02T03:00:37.015Z,13.87
2019-03-02T03:03:04.139Z,16.07
2019-03-02T03:05:53.933Z,12.07
2019-03-02T03:08:55.695Z,13.67
2019-03-02T03:11:22.721Z,13.20
2019-03-02T03:13:49.581Z,11.73
2019-03-02T03:16:17.899Z,15.40
2019-03-02T03:18:47.146Z,11.97
2019-03-02T03:21:13.812Z,15.30
2019-03-02T03:23:40.671Z,13.63
2019-03-02T03:26:07.539Z,14.47
2019-03-02T03:28:34.262Z,13.23
2019-03-02T03:31:01.124Z,15.23
2019-03-02T03:33:42.141Z,14.60
2019-03-02T03:35:57.717Z,12.67
2019-03-02T03:38:29.375Z,13.13
2019-03-02T03:40:54.358Z,14.50
2019-03-02T03:43:21.190Z,13.67
2019-03-02T03:45:48.055Z,15.67
2019-03-02T03:48:17.946Z,17.50
2019-03-02T03:50:48.023Z,13.83
2019-03-02T03:53:12.826Z,12.33
2019-03-02T03:55:39.556Z,14.40
2019-03-02T03:58:13.189Z,12.23
2019-03-02T04:00:40.407Z,10.10
2019-03-02T04:03:21.261Z,12.73
2019-03-02T04:05:48.686Z,13.87
2019-03-02T04:08:17.264Z,12.47
2019-03-02T04:10:44.001Z,13.03
2019-03-02T04:13:10.805Z,13.93
2019-03-02T04:15:41.515Z,11.53
2019-03-02T04:18:50.122Z,11.43
2019-03-02T04:21:14.541Z,13.47
2019-03-02T04:23:41.173Z,13.47
2019-03-02T04:26:08.563Z,13.53
2019-03-02T04:28:35.203Z,12.97
2019-03-02T04:31:04.718Z,14.13
2019-03-02T04:33:30.666Z,14.93
2019-03-02T04:35:57.318Z,13.50
2019-03-02T04:38:24.042Z,13.17
2019-03-02T04:40:51.020Z,11.93
2019-03-02T04:43:17.749Z,10.97
2019-03-02T04:45:44.488Z,12.67
2019-03-02T04:48:11.301Z,13.13
2019-03-02T04:50:38.217Z,15.27
2019-03-02T04:53:05.139Z,12.70
2019-03-02T04:55:32.324Z,16.27
2019-03-02T04:57:58.965Z,15.30
2019-03-02T05:00:28.627Z,16.63
2019-03-02T05:02:56.163Z,14.70
2019-03-02T05:05:24.170Z,14.70
2019-03-02T05:07:50.995Z,11.63
2019-03-02T05:10:17.953Z,14.43
2019-03-02T05:12:44.686Z,14.17
2019-03-02T05:15:16.186Z,14.17
2019-03-02T05:17:42.967Z,16.03
2019-03-02T05:20:09.965Z,14.63
2019-03-02T05:22:36.697Z,15.83
2019-03-02T05:25:04.345Z,14.40
2019-03-02T05:27:32.038Z,15.90
2019-03-02T05:29:59.729Z,16.43
2019-03-02T05:32:26.438Z,15.47
2019-03-02T05:34:53.069Z,14.53
2019-03-02T05:37:19.983Z,14.47
2019-03-02T05:39:49.549Z,15.50
2019-03-02T05:42:15.565Z,12.03
2019-03-02T05:44:42.311Z,13.77
2019-03-02T05:47:09.424Z,16.77
2019-03-02T05:49:36.161Z,16.63
2019-03-02T05:52:03.310Z,15.23
2019-03-02T05:54:30.024Z,15.93
2019-03-02T05:56:56.752Z,14.53
2019-03-02T05:59:26.599Z,15.17
2019-03-02T06:01:52.155Z,14.60
2019-03-02T06:04:22.108Z,16.77
2019-03-02T06:07:00.405Z,16.67
2019-03-02T06:09:27.684Z,14.20
2019-03-02T06:11:54.614Z,17.37
2019-03-02T06:14:21.587Z,17.00
2019-03-02T06:16:48.229Z,18.27
2019-03-02T06:19:17.801Z,14.87
2019-03-02T06:22:03.339Z,14.87
2019-03-02T06:24:30.686Z,15.93
2019-03-02T06:26:57.756Z,17.23
2019-03-02T06:29:24.550Z,14.83
2019-03-02T06:31:54.044Z,16.67
2019-03-02T06:34:20.730Z,17.80
2019-03-02T06:36:48.164Z,20.03
2019-03-02T06:39:15.138Z,22.37
2019-03-02T06:41:42.047Z,18.50
2019-03-02T06:44:50.029Z,15.47
2019-03-02T06:47:17.230Z,17.83
2019-03-02T06:49:44.338Z,20.83
2019-03-02T06:52:30.773Z,20.17
2019-03-02T06:54:58.030Z,19.40
2019-03-02T06:57:25.134Z,19.80
2019-03-02T07:01:49.322Z,20.80
2019-03-02T07:04:18.058Z,18.47
2019-03-02T07:06:46.913Z,21.27
2019-03-02T07:09:27.621Z,19.13
2019-03-02T07:11:54.548Z,19.47
2019-03-02T07:14:21.595Z,23.03
2019-03-02T07:16:51.975Z,22.70
2019-03-02T07:19:37.952Z,25.57
2019-03-02T07:22:04.822Z,25.40
2019-03-02T07:24:31.569Z,19.60
2019-03-02T07:26:58.984Z,25.10
2019-03-02T07:29:45.463Z,26.57
2019-03-02T07:32:13.192Z,22.90
2019-03-02T07:34:40.801Z,26.10
2019-03-02T07:37:09.210Z,23.60
2019-03-02T07:39:38.437Z,23.60
2019-03-02T07:42:05.272Z,25.03
2019-03-02T07:44:32.062Z,25.53
2019-03-02T07:46:59.741Z,26.80
2019-03-02T07:49:26.573Z,23.87
2019-03-02T07:51:53.442Z,29.73
2019-03-02T07:54:20.576Z,27.83
2019-03-02T07:56:47.751Z,27.50
2019-03-02T07:59:15.206Z,29.20
2019-03-02T08:01:42.261Z,29.87
2019-03-02T08:04:09.622Z,27.67
2019-03-02T08:06:36.480Z,26.33
2019-03-02T08:09:44.698Z,25.90
2019-03-02T08:12:11.980Z,26.53
2019-03-02T08:14:39.270Z,28.27
2019-03-02T08:17:09.790Z,27.10
2019-03-02T08:19:35.450Z,25.57
2019-03-02T08:22:03.756Z,25.77
2019-03-02T08:24:32.766Z,25.97
2019-03-02T08:26:59.872Z,27.43
2019-03-02T08:29:46.586Z,27.83
2019-03-02T08:32:13.494Z,23.10
2019-03-02T08:34:42.856Z,22.70
2019-03-02T08:37:09.738Z,25.53
2019-03-02T08:39:37.410Z,23.63
2019-03-02T08:42:05.051Z,25.10
2019-03-02T08:44:32.514Z,26.83
2019-03-02T08:47:00.280Z,22.77
2019-03-02T08:49:27.381Z,23.43
2019-03-02T08:51:55.376Z,25.90
2019-03-02T08:54:22.741Z,23.97
2019-03-02T08:56:49.830Z,21.43
2019-03-02T08:59:17.318Z,18.97
2019-03-02T09:01:44.559Z,22.33
2019-03-02T09:04:14.049Z,20.27
2019-03-02T09:06:40.857Z,22.37
2019-03-02T09:09:08.461Z,26.23
2019-03-02T09:11:35.376Z,26.30
2019-03-02T09:14:02.539Z,22.63
2019-03-02T09:16:29.825Z,20.10
2019-03-02T09:18:56.612Z,21.47
2019-03-02T09:21:23.374Z,20.90
2019-03-02T09:23:51.724Z,21.63
2019-03-02T09:26:19.237Z,22.43
2019-03-02T09:28:46.699Z,27.17
2019-03-02T09:31:13.831Z,20.20
2019-03-02T09:33:40.939Z,19.60
2019-03-02T09:36:07.948Z,19.17
2019-03-02T09:38:34.889Z,17.50
2019-03-02T09:41:01.654Z,16.33
2019-03-02T09:43:28.407Z,19.87
2019-03-02T09:45:55.560Z,17.00
2019-03-02T09:48:24.525Z,17.80
2019-03-02T09:50:51.095Z,22.37
2019-03-02T09:53:18.150Z,18.17
2019-03-02T09:55:44.977Z,18.83
2019-03-02T09:58:12.033Z,17.63
2019-03-02T10:00:39.293Z,17.93
2019-03-02T10:03:06.299Z,20.43
2019-03-02T10:05:33.035Z,17.60
2019-03-02T10:08:00.548Z,17.27
2019-03-02T10:10:28.987Z,14.57
2019-03-02T10:12:57.261Z,19.10
2019-03-02T10:15:24.695Z,17.10
2019-03-02T10:17:52.284Z,17.40
2019-03-02T10:20:19.594Z,16.87
2019-03-02T10:22:46.850Z,16.10
2019-03-02T10:25:14.343Z,13.77
2019-03-02T10:27:41.717Z,17.60
2019-03-02T10:30:11.725Z,15.50
2019-03-02T10:32:38.867Z,16.70
2019-03-02T10:35:06.693Z,15.03
2019-03-02T10:37:33.947Z,14.33
2019-03-02T10:40:01.529Z,14.70
2019-03-02T10:42:32.081Z,13.40
2019-03-02T10:45:17.765Z,17.57
2019-03-02T10:47:45.311Z,14.87
2019-03-02T10:50:14.745Z,15.67
2019-03-02T10:52:41.713Z,15.40
2019-03-02T10:55:12.303Z,16.23
2019-03-02T10:57:38.951Z,15.23
2019-03-02T11:00:09.258Z,15.60
2019-03-02T11:02:37.014Z,11.27
2019-03-02T11:08:16.201Z,11.77
2019-03-02T11:11:02.897Z,15.73
2019-03-02T11:13:51.980Z,12.80
2019-03-02T11:16:38.375Z,10.63
2019-03-02T11:19:25.187Z,15.50
2019-03-02T11:22:14.972Z,11.17
2019-03-02T11:25:00.443Z,12.60
2019-03-02T11:27:49.684Z,12.37
2019-03-02T11:30:36.152Z,9.30
2019-03-02T11:33:22.885Z,10.07
2019-03-02T11:36:10.597Z,11.60
2019-03-02T11:38:57.443Z,12.10
2019-03-02T11:41:44.236Z,8.83
2019-03-02T11:44:31.462Z,12.03
2019-03-02T11:47:18.116Z,10.97
2019-03-02T11:50:04.602Z,10.77
2019-03-02T11:52:51.339Z,10.57
2019-03-02T11:55:38.326Z,19.83
2019-03-02T11:58:14.029Z,11.27
2019-03-02T12:01:01.097Z,10.13
2019-03-02T12:03:47.797Z,11.80
2019-03-02T12:06:25.494Z,10.53
2019-03-02T12:09:12.430Z,10.67
2019-03-02T12:11:59.037Z,9.90
2019-03-02T12:14:46.293Z,10.60
2019-03-02T12:17:41.050Z,9.50
2019-03-02T12:20:24.951Z,9.07
2019-03-02T12:22:59.936Z,11.50
2019-03-02T12:25:46.671Z,10.17
2019-03-02T12:28:36.233Z,10.93
2019-03-02T12:31:21.959Z,13.23
2019-03-02T12:34:08.665Z,11.97
2019-03-02T12:36:55.467Z,15.30
2019-03-02T12:39:42.179Z,11.07
2019-03-02T12:42:30.397Z,12.43
2019-03-02T12:45:17.342Z,11.73
2019-03-02T12:48:04.218Z,10.27
2019-03-02T12:50:51.517Z,10.70
2019-03-02T12:53:35.689Z,13.10
2019-03-02T12:56:21.951Z,14.47
2019-03-02T12:59:08.478Z,11.13
2019-03-02T13:01:55.348Z,10.67
2019-03-02T13:04:45.408Z,10.10
2019-03-02T13:07:30.873Z,15.93
2019-03-02T13:10:17.724Z,13.97
2019-03-02T13:13:04.397Z,12.33
2019-03-02T13:15:51.212Z,12.63
2019-03-02T13:18:38.323Z,12.20
2019-03-02T13:21:25.078Z,10.97
2019-03-02T13:24:14.898Z,11.83
2019-03-02T13:26:49.821Z,10.13
2019-03-02T13:29:23.132Z,11.23
2019-03-02T13:32:09.780Z,9.73
2019-03-02T13:34:56.292Z,10.80
2019-03-02T13:37:42.955Z,8.90
2019-03-02T13:40:29.752Z,10.23
2019-03-02T13:43:37.557Z,12.67
2019-03-02T13:46:24.851Z,10.00
2019-03-02T13:49:11.360Z,9.30
2019-03-02T13:51:58.148Z,8.27
2019-03-02T13:54:33.878Z,8.57
2019-03-02T13:57:11.122Z,8.40
2019-03-02T13:59:58.036Z,8.50
2019-03-02T14:02:44.797Z,7.57
2019-03-02T14:05:31.378Z,8.87
2019-03-02T14:08:17.842Z,7.37
2019-03-02T14:11:04.764Z,9.37
2019-03-02T14:13:51.255Z,8.93
2019-03-02T14:16:37.994Z,10.03
2019-03-02T14:19:31.907Z,8.17
2019-03-02T14:22:18.500Z,11.17
2019-03-02T14:24:55.026Z,10.60
2019-03-02T14:27:41.468Z,7.23
2019-03-02T14:30:12.849Z,10.50
2019-03-02T14:32:59.409Z,7.27
2019-03-02T14:35:46.068Z,8.57
2019-03-02T14:38:23.795Z,7.10
2019-03-02T14:41:09.055Z,7.93
2019-03-02T14:43:57.150Z,7.10
2019-03-02T14:46:45.517Z,9.70
2019-03-02T14:49:32.224Z,8.70
2019-03-02T14:52:19.034Z,8.13
2019-03-02T14:55:05.721Z,9.63
2019-03-02T14:57:52.629Z,7.63
2019-03-02T15:00:39.379Z,6.90
2019-03-02T15:03:29.349Z,8.17
2019-03-02T15:06:15.607Z,7.47
2019-03-02T15:08:51.252Z,11.00
2019-03-02T15:11:40.030Z,8.70
2019-03-02T15:14:26.466Z,7.37
2019-03-02T15:17:13.183Z,10.87
2019-03-02T15:19:59.250Z,9.03
2019-03-02T15:22:46.396Z,8.67
2019-03-02T15:25:33.197Z,7.97
2019-03-02T15:28:28.930Z,9.87
2019-03-02T15:31:09.784Z,7.63
2019-03-02T15:33:56.319Z,7.53
2019-03-02T15:36:44.081Z,10.03
2019-03-02T15:39:32.050Z,10.03
2019-03-02T15:42:21.257Z,7.73
2019-03-02T15:45:06.897Z,9.30
2019-03-02T15:47:53.393Z,8.63
2019-03-02T15:50:40.225Z,8.17
2019-03-02T15:53:26.584Z,7.67
2019-03-02T15:56:35.640Z,7.50
2019-03-02T15:59:22.158Z,7.60
2019-03-02T16:02:10.225Z,6.97
2019-03-02T16:04:56.594Z,9.10
2019-03-02T16:07:38.881Z,7.43
2019-03-02T16:10:27.667Z,10.70
2019-03-02T16:13:16.846Z,9.20
2019-03-02T16:15:49.927Z,7.87
2019-03-02T16:18:38.393Z,8.33
2019-03-02T16:21:24.937Z,7.70
2019-03-02T16:24:11.379Z,10.67
2019-03-02T16:26:45.062Z,8.87
2019-03-02T16:29:31.468Z,6.90
2019-03-02T16:32:05.196Z,10.03
2019-03-02T16:34:51.801Z,7.47
2019-03-02T16:37:38.435Z,9.83
2019-03-02T16:40:26.056Z,8.90
2019-03-02T16:43:12.952Z,8.20
2019-03-02T16:45:59.370Z,9.53
2019-03-02T16:48:45.799Z,10.10
2019-03-02T16:51:53.701Z,12.10
2019-03-02T16:54:40.072Z,11.53
2019-03-02T16:57:30.344Z,10.70
2019-03-02T17:00:14.777Z,8.87
2019-03-02T17:03:03.015Z,12.13
2019-03-02T17:05:38.669Z,10.37
2019-03-02T17:08:25.331Z,11.27
2019-03-02T17:10:59.536Z,11.33
2019-03-02T17:13:45.535Z,14.30
2019-03-02T17:16:35.331Z,11.97
2019-03-02T17:19:24.444Z,14.37
2019-03-02T17:22:09.198Z,17.20
2019-03-02T17:24:56.161Z,17.33
2019-03-02T17:27:43.211Z,19.53
2019-03-02T17:30:34.161Z,16.80
2019-03-02T17:33:20.915Z,17.77
2019-03-02T17:36:07.613Z,16.43
2019-03-02T17:38:54.324Z,16.33
2019-03-02T17:41:41.103Z,16.07
2019-03-02T17:44:28.079Z,19.03
2019-03-02T17:47:15.161Z,19.07
2019-03-02T17:50:01.864Z,19.17
2019-03-02T17:52:50.487Z,18.50
2019-03-02T17:55:25.058Z,18.83
2019-03-02T17:58:11.874Z,18.73
2019-03-02T18:00:58.236Z,18.27
2019-03-02T18:03:50.201Z,18.17
2019-03-02T18:06:35.452Z,21.40
2019-03-02T18:09:24.053Z,20.60
2019-03-02T18:12:11.252Z,20.57
2019-03-02T18:14:58.235Z,19.27
2019-03-02T18:17:45.216Z,22.93
2019-03-02T18:20:15.898Z,19.83
2019-03-02T18:22:43.037Z,23.80
2019-03-02T18:25:11.983Z,23.67
2019-03-02T18:27:39.577Z,23.87
2019-03-02T18:30:09.963Z,22.60
2019-03-02T18:35:34.060Z,18.30
2019-03-02T18:38:04.485Z,22.83
2019-03-02T18:40:31.229Z,18.13
2019-03-02T18:42:58.607Z,19.97
2019-03-02T18:45:45.906Z,19.80
2019-03-02T18:48:34.136Z,23.90
2019-03-02T18:51:22.461Z,20.10
2019-03-02T18:53:49.713Z,20.90
2019-03-02T18:56:16.454Z,21.43
2019-03-02T18:58:43.097Z,23.60
2019-03-02T19:01:51.207Z,21.13
2019-03-02T19:04:20.759Z,19.10
2019-03-02T19:06:49.139Z,23.07
2019-03-02T19:11:55.351Z,20.30
2019-03-02T19:14:23.960Z,23.17
2019-03-02T19:16:50.691Z,22.63
2019-03-02T19:19:18.587Z,22.53
2019-03-02T19:21:45.361Z,21.53
2019-03-02T19:24:12.152Z,27.57
2019-03-02T19:26:39.289Z,27.20
2019-03-02T19:29:06.291Z,28.97
2019-03-02T19:32:14.175Z,28.87
2019-03-02T19:35:00.493Z,25.20
2019-03-02T19:37:27.278Z,28.17
2019-03-02T19:39:54.178Z,27.43
2019-03-02T19:42:20.914Z,29.07
2019-03-02T19:44:47.973Z,27.10
2019-03-02T19:47:14.853Z,29.27
2019-03-02T19:49:41.596Z,26.07
2019-03-02T19:52:08.533Z,27.23
2019-03-02T19:54:35.272Z,28.70
2019-03-02T19:57:02.038Z,28.70
2019-03-02T19:59:28.894Z,27.43
2019-03-02T20:01:55.832Z,23.97
2019-03-02T20:04:23.160Z,23.83
2019-03-02T20:06:50.026Z,24.53
2019-03-02T20:09:17.777Z,24.70
2019-03-02T20:11:44.505Z,26.63
2019-03-02T20:14:11.904Z,27.50
2019-03-02T20:16:38.925Z,30.13
2019-03-02T20:19:06.268Z,29.73
2019-03-02T20:21:33.095Z,31.20
2019-03-02T20:23:59.833Z,33.00
2019-03-02T20:26:26.891Z,31.67
2019-03-02T20:28:54.513Z,31.77
2019-03-02T20:31:21.506Z,32.53
2019-03-02T20:33:48.659Z,33.63
2019-03-02T20:36:15.589Z,34.83
2019-03-02T20:38:42.435Z,34.83
2019-03-02T20:41:09.582Z,35.00
2019-03-02T20:43:36.926Z,30.77
2019-03-02T20:46:04.080Z,33.53
2019-03-02T20:48:50.677Z,31.90
2019-03-02T20:51:17.521Z,32.20
2019-03-02T20:53:44.207Z,31.07
2019-03-02T20:56:11.401Z,30.67
2019-03-02T20:58:38.710Z,32.23
2019-03-02T21:01:05.466Z,30.00
2019-03-02T21:03:52.100Z,31.77
2019-03-02T21:06:18.776Z,32.13
2019-03-02T21:08:46.153Z,30.30
2019-03-02T21:11:14.190Z,33.77
2019-03-02T21:13:41.345Z,33.87
2019-03-02T21:16:08.547Z,31.40
2019-03-02T21:18:35.474Z,33.17
2019-03-02T21:21:02.634Z,30.30
2019-03-02T21:23:29.643Z,37.60
2019-03-02T21:26:16.238Z,38.63
2019-03-02T21:28:43.021Z,32.13
2019-03-02T21:31:09.756Z,36.67
2019-03-02T21:33:56.059Z,35.30
2019-03-02T21:36:22.794Z,34.53
2019-03-02T21:38:50.003Z,35.03
2019-03-02T21:41:16.688Z,33.53
2019-03-02T21:43:43.770Z,31.93
2019-03-02T21:46:10.788Z,35.47
2019-03-02T21:48:37.936Z,34.53
2019-03-02T21:51:05.765Z,32.47
2019-03-02T21:53:33.589Z,33.77
2019-03-02T21:56:00.668Z,31.43
2019-03-02T21:58:47.548Z,33.57
2019-03-02T22:01:14.337Z,31.07
2019-03-02T22:03:41.078Z,34.67
2019-03-02T22:06:27.375Z,33.27
2019-03-02T22:08:54.504Z,32.30
2019-03-02T22:11:21.482Z,33.33
2019-03-02T22:13:48.265Z,33.87
2019-03-02T22:16:34.833Z,34.97
2019-03-02T22:19:01.717Z,31.00
2019-03-02T22:21:28.469Z,32.63
2019-03-02T22:23:55.207Z,26.53
2019-03-02T22:26:22.012Z,30.50
2019-03-02T22:28:49.389Z,30.90
2019-03-02T22:31:16.187Z,32.23
2019-03-02T22:33:43.511Z,30.73
2019-03-02T22:36:10.551Z,33.23
2019-03-02T22:38:37.474Z,32.63
2019-03-02T22:41:04.263Z,29.27
2019-03-02T22:43:31.001Z,32.57
2019-03-02T22:45:57.941Z,28.63
2019-03-02T22:48:24.722Z,30.23
2019-03-02T22:50:51.453Z,30.03
2019-03-02T22:53:38.059Z,30.93
2019-03-02T22:56:04.903Z,31.03
2019-03-02T22:58:31.281Z,31.40
2019-03-02T23:01:37.517Z,29.57
2019-03-02T23:04:04.549Z,30.17
2019-03-02T23:06:31.401Z,30.77
2019-03-02T23:08:58.815Z,34.10
2019-03-02T23:11:25.461Z,32.37
2019-03-02T23:13:52.193Z,34.60
2019-03-02T23:16:18.988Z,34.17
2019-03-02T23:18:45.836Z,38.07
2019-03-02T23:21:12.669Z,35.50
2019-03-02T23:23:39.475Z,34.03
2019-03-02T23:26:06.317Z,34.53
2019-03-02T23:28:33.059Z,36.50
2019-03-02T23:30:59.849Z,38.83
2019-03-02T23:33:26.639Z,38.93
2019-03-02T23:35:53.468Z,36.33
2019-03-02T23:38:20.256Z,38.33
2019-03-02T23:40:47.269Z,41.17
2019-03-02T23:43:14.352Z,39.57
2019-03-02T23:46:01.018Z,38.73
2019-03-02T23:48:27.907Z,38.13
2019-03-02T23:50:55.375Z,40.30
2019-03-02T23:53:22.160Z,37.97
2019-03-02T23:55:49.037Z,38.60
2019-03-02T23:58:15.886Z,38.93
